Time;durP1;ratioP1;P1;durP2;ratioP2;P2;SDS_P1;SDS_P2;PMS_P1;PMS_P2;Temp;Humidity;BMP_temperature;BMP_pressure;BME280_temperature;BME280_humidity;BME280_pressure;Samples;Min_cycle;Max_cycle;Signal;HPM_P1;HPM_P2
2023/02/24 00:02:28;;;;;;;10.23;3.70;;;;;;;6.32;84.67;101447.00;4934365;28;20039;-44
2023/02/24 00:05:15;;;;;;;15.50;4.45;;;;;;;6.32;84.98;101438.75;4931360;29;20757;-44
2023/02/24 00:08:02;;;;;;;14.60;3.65;;;;;;;6.30;85.05;101427.25;4931815;28;20064;-45
2023/02/24 00:10:49;;;;;;;12.50;3.80;;;;;;;6.27;85.01;101430.59;4922107;29;20054;-45
2023/02/24 00:13:36;;;;;;;20.40;4.30;;;;;;;6.26;85.04;101426.19;4931796;28;20418;-49
2023/02/24 00:16:24;;;;;;;13.88;4.80;;;;;;;6.25;85.19;101433.63;4932062;29;20048;-50
2023/02/24 00:19:15;;;;;;;9.98;3.53;;;;;;;6.27;85.60;101433.34;4930708;29;20047;-45
2023/02/24 00:22:04;;;;;;;15.80;4.32;;;;;;;6.25;85.30;101443.84;4931786;29;20055;-46
2023/02/24 00:24:52;;;;;;;8.65;3.25;;;;;;;6.22;85.43;101437.00;4928799;29;20391;-49
2023/02/24 00:27:39;;;;;;;14.05;5.28;;;;;;;6.21;85.68;101440.84;4931099;29;20524;-45
2023/02/24 00:30:28;;;;;;;18.02;4.00;;;;;;;6.19;85.55;101437.59;4930552;29;20060;-45
2023/02/24 00:33:15;;;;;;;18.83;5.32;;;;;;;6.19;85.73;101428.53;4930847;29;20070;-45
2023/02/24 00:36:07;;;;;;;12.52;3.50;;;;;;;6.19;85.85;101420.28;4930515;29;20057;-44
2023/02/24 00:39:08;;;;;;;16.27;4.53;;;;;;;6.18;85.94;101424.13;4931553;28;20055;-45
2023/02/24 00:42:03;;;;;;;15.20;3.95;;;;;;;6.15;86.10;101431.03;4930016;29;20282;-44
2023/02/24 00:44:52;;;;;;;13.02;5.95;;;;;;;6.15;85.94;101425.53;4931852;28;20055;-45
2023/02/24 00:47:39;;;;;;;16.15;4.70;;;;;;;6.13;86.19;101411.28;4930094;29;20058;-45
2023/02/24 00:50:26;;;;;;;13.18;4.25;;;;;;;6.12;86.43;101421.47;4929127;29;20051;-45
2023/02/24 00:53:17;;;;;;;11.65;3.60;;;;;;;6.11;86.24;101414.34;4931215;29;20414;-45
2023/02/24 00:56:06;;;;;;;16.67;3.90;;;;;;;6.11;86.29;101414.34;4920528;29;20509;-45
2023/02/24 00:58:54;;;;;;;10.40;4.18;;;;;;;6.12;86.57;101409.66;4930959;28;20047;-46
2023/02/24 01:01:43;;;;;;;11.02;3.28;;;;;;;6.11;86.37;101402.53;4932945;29;20421;-46
2023/02/24 01:04:31;;;;;;;15.00;4.45;;;;;;;6.08;86.53;101397.63;4936442;29;20047;-45
2023/02/24 01:07:18;;;;;;;11.27;3.83;;;;;;;6.06;86.80;101395.16;4931585;28;20051;-45
2023/02/24 01:10:07;;;;;;;16.60;4.55;;;;;;;6.07;86.51;101390.50;4930399;29;20052;-45
2023/02/24 01:12:54;;;;;;;8.95;4.75;;;;;;;6.05;86.67;101390.81;4929811;29;20156;-45
2023/02/24 01:15:41;;;;;;;19.45;7.28;;;;;;;6.06;86.82;101389.66;4930794;28;20063;-44
2023/02/24 01:18:29;;;;;;;10.82;4.18;;;;;;;6.06;87.06;101394.38;4931266;28;20422;-46
2023/02/24 01:21:18;;;;;;;11.23;3.25;;;;;;;6.04;87.03;101391.91;4929942;29;20051;-44
2023/02/24 01:24:05;;;;;;;7.53;3.55;;;;;;;6.04;87.19;101380.09;4930806;29;20051;-45
2023/02/24 01:26:52;;;;;;;16.63;3.22;;;;;;;6.02;87.20;101374.06;4930073;29;20070;-44
2023/02/24 01:29:40;;;;;;;13.65;4.18;;;;;;;6.03;87.23;101372.97;4930633;29;20048;-45
2023/02/24 01:32:30;;;;;;;16.77;4.22;;;;;;;6.01;87.31;101376.00;4930336;28;20048;-48
2023/02/24 01:35:17;;;;;;;11.15;3.88;;;;;;;6.00;87.25;101351.59;4929113;29;20186;-47
2023/02/24 01:38:04;;;;;;;13.20;3.75;;;;;;;6.01;87.42;101369.72;4920914;29;20044;-45
2023/02/24 01:40:58;;;;;;;14.35;3.33;;;;;;;5.97;87.45;101366.75;4923486;29;20067;-49
2023/02/24 01:44:15;;;;;;;9.40;3.95;;;;;;;5.95;87.56;101359.91;4923580;29;20043;-46
2023/02/24 01:47:02;;;;;;;8.48;5.07;;;;;;;5.97;87.69;101346.69;4926131;29;20064;-45
2023/02/24 01:49:53;;;;;;;12.50;5.30;;;;;;;5.97;87.69;101343.94;4924122;29;20118;-45
2023/02/24 01:52:43;;;;;;;10.38;3.50;;;;;;;5.95;87.66;101341.50;4929321;29;20508;-46
2023/02/24 01:55:35;;;;;;;12.15;4.43;;;;;;;5.95;87.94;101340.69;4927756;29;20077;-45
2023/02/24 01:58:25;;;;;;;18.15;3.75;;;;;;;5.95;87.79;101346.16;4930125;28;20060;-46
2023/02/24 02:01:15;;;;;;;18.52;4.22;;;;;;;5.93;87.83;101340.16;4931912;29;20051;-45
2023/02/24 02:04:08;;;;;;;14.85;3.75;;;;;;;5.93;88.00;101345.66;4933460;29;20078;-45
2023/02/24 02:06:56;;;;;;;14.48;4.05;;;;;;;5.92;87.92;101335.78;4933053;29;20055;-44
2023/02/24 02:09:45;;;;;;;18.50;4.00;;;;;;;5.92;87.98;101316.53;4933647;28;20047;-47
2023/02/24 02:12:35;;;;;;;11.57;3.90;;;;;;;5.91;88.23;101314.91;4923361;29;20498;-44
2023/02/24 02:15:23;;;;;;;12.38;4.03;;;;;;;5.89;88.37;101297.91;4932863;29;20044;-44
2023/02/24 02:18:39;;;;;;;16.13;5.05;;;;;;;5.87;88.44;101308.38;4934228;28;20063;-45
2023/02/24 02:21:32;;;;;;;15.57;4.47;;;;;;;5.82;88.44;101308.44;4932811;29;20047;-44
2023/02/24 02:24:38;;;;;;;11.25;3.97;;;;;;;5.79;88.73;101296.13;4932517;29;20044;-49
2023/02/24 02:27:37;;;;;;;14.85;4.43;;;;;;;5.78;88.61;101305.47;4932131;29;20414;-46
2023/02/24 02:30:42;;;;;;;13.13;3.65;;;;;;;5.80;88.78;101302.44;4923926;29;20426;-46
2023/02/24 02:34:06;;;;;;;18.65;3.85;;;;;;;5.79;88.89;101292.53;4934339;28;20051;-46
2023/02/24 02:37:14;;;;;;;11.13;3.58;;;;;;;5.77;88.68;101297.53;4934405;28;20059;-45
2023/02/24 02:40:20;;;;;;;11.65;3.08;;;;;;;5.75;88.89;101289.56;4933774;28;20051;-47
2023/02/24 02:43:31;;;;;;;7.50;3.83;;;;;;;5.76;89.37;101282.16;4921410;29;20459;-46
2023/02/24 02:46:34;;;;;;;11.27;5.68;;;;;;;5.78;89.08;101290.91;4933947;29;20479;-45
2023/02/24 02:49:33;;;;;;;9.93;4.28;;;;;;;5.77;89.12;101289.28;4933458;29;20117;-47
2023/02/24 02:52:33;;;;;;;18.15;3.55;;;;;;;5.77;89.29;101276.34;4932789;29;20047;-45
2023/02/24 02:55:41;;;;;;;13.63;3.30;;;;;;;5.77;89.52;101270.84;4933713;28;20825;-45
2023/02/24 02:58:36;;;;;;;15.57;3.92;;;;;;;5.78;89.37;101272.50;4930552;29;20426;-45
2023/02/24 03:01:36;;;;;;;14.73;3.05;;;;;;;5.78;89.33;101263.44;5041982;23;20077;-46
2023/02/24 03:04:25;;;;;;;9.02;4.85;;;;;;;5.79;89.42;101268.63;4980394;28;20060;-49
2023/02/24 03:07:16;;;;;;;19.20;4.22;;;;;;;5.81;89.45;101271.91;4990164;28;20042;-46
2023/02/24 03:10:10;;;;;;;9.18;3.47;;;;;;;5.83;89.72;101271.59;4988848;28;20050;-52
2023/02/24 03:13:00;;;;;;;17.75;5.55;;;;;;;5.84;89.74;101267.72;4989006;28;20140;-46
2023/02/24 03:15:51;;;;;;;15.35;4.05;;;;;;;5.83;89.71;101271.59;4990436;28;20046;-53
2023/02/24 03:18:49;;;;;;;20.25;3.58;;;;;;;5.81;89.54;101268.31;4976656;28;20081;-49
2023/02/24 03:21:45;;;;;;;17.73;4.47;;;;;;;5.77;89.94;101267.31;4975895;28;20069;-49
2023/02/24 03:24:37;;;;;;;14.43;3.47;;;;;;;5.72;89.97;101259.94;4989643;28;20061;-48
2023/02/24 03:27:34;;;;;;;12.27;3.50;;;;;;;5.73;90.15;101258.03;4989639;28;20042;-46
2023/02/24 03:30:26;;;;;;;18.23;3.72;;;;;;;5.71;90.27;101243.78;4988531;28;20062;-47
2023/02/24 03:33:15;;;;;;;18.10;4.15;;;;;;;5.73;90.01;101252.53;4977345;28;20058;-46
2023/02/24 03:36:03;;;;;;;15.20;4.38;;;;;;;5.70;90.12;101250.38;4988752;28;20054;-46
2023/02/24 03:38:50;;;;;;;15.65;3.13;;;;;;;5.68;90.07;101249.88;4990020;28;20053;-46
2023/02/24 03:41:48;;;;;;;11.43;4.18;;;;;;;5.65;90.24;101242.22;4989230;28;20411;-47
2023/02/24 03:44:35;;;;;;;22.85;3.90;;;;;;;5.63;90.42;101244.47;4989426;28;20503;-46
2023/02/24 03:47:24;;;;;;;14.93;4.55;;;;;;;5.61;90.46;101241.22;4988312;28;20385;-46
2023/02/24 03:50:16;;;;;;;14.55;4.07;;;;;;;5.58;90.53;101233.56;4982885;28;20069;-46
2023/02/24 03:53:03;;;;;;;26.42;4.38;;;;;;;5.54;90.39;101234.16;4980536;28;20062;-47
2023/02/24 03:56:09;;;;;;;13.00;4.38;;;;;;;5.50;90.66;101224.91;4975604;28;20119;-46
2023/02/24 03:59:22;;;;;;;14.27;4.68;;;;;;;5.47;90.64;101216.44;4974420;28;20049;-46
2023/02/24 04:02:29;;;;;;;14.52;3.85;;;;;;;5.45;90.76;101230.44;4989993;28;20069;-46
2023/02/24 04:05:22;;;;;;;16.35;4.10;;;;;;;5.47;90.75;101227.44;4986843;28;20303;-46
2023/02/24 04:08:10;;;;;;;14.50;3.45;;;;;;;5.52;90.93;101219.91;4988157;28;20129;-49
2023/02/24 04:11:13;;;;;;;16.38;4.55;;;;;;;5.57;91.07;101223.69;4989389;28;20054;-46
2023/02/24 04:14:06;;;;;;;15.57;4.20;;;;;;;5.61;90.95;101213.75;4988974;28;20043;-46
2023/02/24 04:17:12;;;;;;;11.85;3.55;;;;;;;5.61;91.02;101208.25;4976787;28;20054;-46
2023/02/24 04:20:22;;;;;;;12.50;3.85;;;;;;;5.59;90.90;101202.25;4989234;28;20046;-51
2023/02/24 04:23:17;;;;;;;19.27;5.43;;;;;;;5.59;91.03;101202.25;4987780;28;20057;-46
2023/02/24 04:26:05;;;;;;;18.40;3.33;;;;;;;5.57;91.26;101204.47;4988090;28;20408;-46
2023/02/24 04:28:54;;;;;;;14.32;4.05;;;;;;;5.58;91.33;101200.59;4988033;28;20480;-48
2023/02/24 04:31:41;;;;;;;13.95;3.70;;;;;;;5.61;91.31;101198.09;4988151;28;20053;-47
2023/02/24 04:34:31;;;;;;;20.83;4.10;;;;;;;5.65;91.73;101196.34;4987993;28;20054;-46
2023/02/24 04:37:21;;;;;;;18.33;3.47;;;;;;;5.69;91.38;101185.59;4987956;28;20054;-46
2023/02/24 04:40:11;;;;;;;22.90;5.30;;;;;;;5.73;91.61;101190.16;4987838;28;20081;-46
2023/02/24 04:42:58;;;;;;;25.27;5.30;;;;;;;5.78;91.51;101189.25;4987469;28;20671;-49
2023/02/24 04:45:45;;;;;;;19.15;4.10;;;;;;;5.82;91.66;101185.63;4987836;28;20520;-51
2023/02/24 04:48:33;;;;;;;14.57;3.30;;;;;;;5.87;91.58;101187.47;4988548;28;20505;-46
2023/02/24 04:51:21;;;;;;;13.85;3.03;;;;;;;5.89;91.71;101185.22;4988497;28;20038;-46
2023/02/24 04:54:16;;;;;;;18.73;3.88;;;;;;;5.89;91.62;101183.31;4986987;28;20060;-46
2023/02/24 04:57:06;;;;;;;26.10;3.35;;;;;;;5.88;91.67;101178.09;4986336;28;20051;-46
2023/02/24 04:59:53;;;;;;;22.58;3.65;;;;;;;5.84;91.70;101169.63;4988987;28;20540;-46
2023/02/24 05:02:40;;;;;;;20.17;3.90;;;;;;;5.83;91.87;101175.41;4980332;28;20064;-47
2023/02/24 05:05:27;;;;;;;21.33;4.18;;;;;;;5.82;92.01;101165.56;4988346;28;20476;-47
2023/02/24 05:08:14;;;;;;;25.40;4.40;;;;;;;5.82;92.17;101162.81;4987095;28;20060;-46
2023/02/24 05:11:04;;;;;;;18.92;3.38;;;;;;;5.83;92.19;101153.44;4979715;28;20057;-46
2023/02/24 05:13:51;;;;;;;16.35;3.53;;;;;;;5.83;92.14;101157.00;4986985;28;20054;-46
2023/02/24 05:16:38;;;;;;;16.15;3.30;;;;;;;5.84;92.37;101155.91;4988016;28;20059;-45
2023/02/24 05:22:31;;;;;;;15.38;3.95;;;;;;;5.84;92.39;101161.41;4987918;28;20056;-46
2023/02/24 05:25:19;;;;;;;15.23;3.20;;;;;;;5.83;92.29;101161.69;4987915;28;20042;-47
2023/02/24 05:28:06;;;;;;;20.05;4.18;;;;;;;5.82;92.46;101157.31;4987726;28;20049;-46
2023/02/24 05:30:54;;;;;;;21.65;4.30;;;;;;;5.84;92.67;101160.56;4984900;28;20634;-47
2023/02/24 05:33:44;;;;;;;22.20;3.80;;;;;;;5.85;92.68;101151.25;4988710;28;20059;-46
2023/02/24 05:36:35;;;;;;;21.70;4.63;;;;;;;5.87;92.89;101140.75;4972444;28;20046;-46
2023/02/24 05:39:25;;;;;;;22.38;3.95;;;;;;;5.90;92.70;101142.91;4977921;28;20056;-46
2023/02/24 05:42:12;;;;;;;20.17;3.75;;;;;;;5.91;92.63;101144.53;4992938;28;20053;-50
2023/02/24 05:45:00;;;;;;;24.13;5.28;;;;;;;5.88;92.73;101142.38;4992252;28;20050;-46
2023/02/24 05:47:47;;;;;;;17.90;4.75;;;;;;;5.85;92.77;101151.25;4990596;28;20511;-47
2023/02/24 05:50:34;;;;;;;21.95;3.88;;;;;;;5.82;92.78;101147.16;4992984;28;20054;-47
2023/02/24 05:53:22;;;;;;;15.52;4.35;;;;;;;5.81;92.78;101144.69;4991414;28;20058;-46
2023/02/24 05:56:10;;;;;;;20.45;3.85;;;;;;;5.81;92.89;101155.69;4991767;28;20053;-46
2023/02/24 05:59:02;;;;;;;21.98;3.72;;;;;;;5.86;93.22;101152.88;4991526;28;20047;-46
2023/02/24 06:01:52;;;;;;;12.75;3.22;;;;;;;5.92;93.13;101154.41;4991492;28;20050;-49
2023/02/24 06:04:52;;;;;;;17.60;3.60;;;;;;;5.95;93.11;101157.38;4990926;28;20054;-46
2023/02/24 06:07:41;;;;;;;23.55;4.07;;;;;;;5.99;93.32;101154.81;4992286;28;20054;-46
2023/02/24 06:10:30;;;;;;;25.13;4.35;;;;;;;6.02;93.02;101162.44;4992309;28;20057;-46
2023/02/24 06:13:17;;;;;;;10.95;3.00;;;;;;;6.06;92.97;101158.00;4991454;28;20049;-51
2023/02/24 06:16:05;;;;;;;26.23;4.80;;;;;;;6.08;93.10;101155.75;4991815;28;20575;-46
2023/02/24 06:18:55;;;;;;;17.45;4.03;;;;;;;6.10;93.33;101159.81;4991032;28;20065;-46
2023/02/24 06:21:42;;;;;;;10.50;2.70;;;;;;;6.14;93.32;101160.03;4989056;28;20428;-46
2023/02/24 06:24:32;;;;;;;18.80;3.92;;;;;;;6.16;93.12;101152.28;4989933;28;20053;-46
2023/02/24 06:27:20;;;;;;;14.40;3.95;;;;;;;6.21;93.43;101149.44;4991337;28;20065;-46
2023/02/24 06:30:09;;;;;;;17.70;3.80;;;;;;;6.25;93.41;101144.13;4977457;28;20062;-46
2023/02/24 06:32:56;;;;;;;17.52;3.58;;;;;;;6.29;93.29;101140.47;4991018;28;20484;-48
2023/02/24 06:35:43;;;;;;;18.95;3.67;;;;;;;6.31;93.33;101142.88;4985542;28;20059;-47
2023/02/24 06:38:31;;;;;;;18.23;3.35;;;;;;;6.35;93.66;101143.91;4980770;28;20057;-48
2023/02/24 06:41:18;;;;;;;12.82;3.45;;;;;;;6.37;93.31;101134.25;4977472;28;20069;-53
2023/02/24 06:44:06;;;;;;;16.98;3.22;;;;;;;6.40;93.70;101141.88;4991492;28;20046;-46
2023/02/24 06:46:53;;;;;;;28.60;4.50;;;;;;;6.43;93.33;101129.44;4990511;28;20047;-46
2023/02/24 06:49:41;;;;;;;18.50;4.25;;;;;;;6.45;93.55;101129.94;4991451;28;20058;-46
2023/02/24 06:52:29;;;;;;;22.15;3.60;;;;;;;6.45;93.67;101136.25;4989431;28;20050;-47
2023/02/24 06:55:26;;;;;;;19.83;4.10;;;;;;;6.46;93.55;101128.84;4988195;28;20053;-46
2023/02/24 06:58:23;;;;;;;15.10;3.33;;;;;;;6.46;93.76;101129.63;4990935;28;20094;-45
2023/02/24 07:01:12;;;;;;;18.70;4.85;;;;;;;6.47;93.83;101125.75;4990234;28;20050;-46
2023/02/24 07:07:02;;;;;;;15.75;3.33;;;;;;;6.47;93.73;101119.44;4988920;28;20054;-46
2023/02/24 07:09:50;;;;;;;15.95;3.78;;;;;;;6.47;93.89;101109.25;4989783;28;20502;-47
2023/02/24 07:12:38;;;;;;;22.50;3.60;;;;;;;6.48;93.53;101116.41;4990594;28;20061;-46
2023/02/24 07:15:30;;;;;;;17.52;3.20;;;;;;;6.45;93.82;101107.94;4991135;28;20439;-47
2023/02/24 07:18:18;;;;;;;16.70;4.57;;;;;;;6.44;93.74;101109.88;4989582;28;20046;-47
2023/02/24 07:21:10;;;;;;;17.00;2.65;;;;;;;6.43;93.86;101124.75;4989444;28;20084;-46
2023/02/24 07:23:57;;;;;;;17.15;2.80;;;;;;;6.41;93.96;101116.00;4989182;28;20515;-48
2023/02/24 07:26:50;;;;;;;18.80;4.43;;;;;;;6.40;94.10;101119.88;4991044;28;20459;-48
2023/02/24 07:29:38;;;;;;;16.90;3.78;;;;;;;6.40;94.21;101108.88;4989822;28;20050;-47
2023/02/24 07:32:25;;;;;;;19.40;2.90;;;;;;;6.46;94.21;101120.59;4989410;28;20062;-50
2023/02/24 07:35:13;;;;;;;14.23;2.85;;;;;;;6.50;94.21;101110.56;4979550;28;20058;-48
2023/02/24 07:38:03;;;;;;;13.00;4.72;;;;;;;6.54;94.04;101119.84;4983509;28;20051;-46
2023/02/24 07:40:56;;;;;;;14.80;2.95;;;;;;;6.57;94.09;101122.78;4988402;28;20051;-47
2023/02/24 07:43:43;;;;;;;13.57;3.88;;;;;;;6.60;94.09;101105.66;4990072;28;20065;-47
2023/02/24 07:46:29;;;;;;;16.92;3.05;;;;;;;6.63;94.14;101112.47;4973353;28;20051;-46
2023/02/24 07:49:24;;;;;;;19.95;3.60;;;;;;;6.65;94.14;101108.28;4989619;28;20050;-46
2023/02/24 07:52:11;;;;;;;24.17;4.47;;;;;;;6.68;94.18;101109.59;4990185;28;20058;-46
2023/02/24 07:54:59;;;;;;;21.17;4.60;;;;;;;6.69;93.94;101114.00;4989253;28;20359;-51
2023/02/24 07:57:47;;;;;;;18.30;4.22;;;;;;;6.72;94.10;101105.91;4988918;28;20425;-50
2023/02/24 08:00:58;;;;;;;18.60;4.72;;;;;;;6.74;94.39;101109.19;4990108;28;20555;-46
2023/02/24 08:03:41;;;;;;;17.50;4.65;;;;;;;6.78;94.33;101123.13;4950846;28;20105;-47
2023/02/24 08:06:36;;;;;;;17.17;4.22;;;;;;;6.82;94.22;101115.06;4950920;29;20055;-48
2023/02/24 08:12:33;;;;;;;14.85;3.17;;;;;;;6.91;94.22;101105.75;4950448;28;20051;-47
2023/02/24 08:15:23;;;;;;;17.83;3.63;;;;;;;6.96;94.27;101110.34;4944358;28;20054;-47
2023/02/24 08:18:11;;;;;;;17.75;4.00;;;;;;;6.99;94.05;101104.22;4939458;29;20051;-46
2023/02/24 08:21:03;;;;;;;20.17;3.83;;;;;;;7.02;94.16;101109.06;4948662;28;20047;-47
2023/02/24 08:23:51;;;;;;;17.58;3.00;;;;;;;7.03;94.33;101114.28;4941752;28;20055;-51
2023/02/24 08:26:43;;;;;;;22.55;8.02;;;;;;;7.07;94.25;101117.22;4937265;29;20066;-47
2023/02/24 08:29:56;;;;;;;13.82;3.88;;;;;;;7.07;94.41;101118.03;4949759;29;20522;-48
2023/02/24 08:32:45;;;;;;;14.93;3.45;;;;;;;7.11;94.29;101109.97;4950297;29;20190;-46
2023/02/24 08:35:35;;;;;;;20.30;3.65;;;;;;;7.13;94.34;101124.22;4950716;28;20066;-50
2023/02/24 08:38:23;;;;;;;17.05;4.28;;;;;;;7.15;94.35;101113.69;4944440;29;20051;-46
2023/02/24 08:41:16;;;;;;;13.52;4.30;;;;;;;7.20;94.44;101105.34;4950049;29;20047;-47
2023/02/24 08:44:04;;;;;;;21.90;6.13;;;;;;;7.22;94.27;101106.66;4949683;29;20417;-48
2023/02/24 08:46:52;;;;;;;13.27;3.75;;;;;;;7.26;94.38;101113.16;4950362;28;20070;-50
2023/02/24 08:49:39;;;;;;;19.35;3.88;;;;;;;7.31;94.41;101107.50;4949208;29;20050;-47
2023/02/24 08:52:27;;;;;;;12.88;3.20;;;;;;;7.35;94.32;101113.19;4949616;29;20043;-47
2023/02/24 08:55:21;;;;;;;22.65;4.50;;;;;;;7.39;94.33;101105.91;4948335;29;20101;-46
2023/02/24 08:58:14;;;;;;;11.10;2.55;;;;;;;7.42;94.32;101104.47;4950370;28;20062;-46
2023/02/24 09:01:03;;;;;;;19.75;2.65;;;;;;;7.44;94.32;101103.03;4959009;28;20065;-47
2023/02/24 09:03:54;;;;;;;14.65;3.30;;;;;;;7.44;94.27;101094.78;4999334;28;20105;-46
2023/02/24 09:06:56;;;;;;;15.68;4.18;;;;;;;7.48;94.30;101104.03;4987448;28;20053;-46
2023/02/24 09:09:58;;;;;;;14.65;3.03;;;;;;;7.50;94.13;101101.78;4986454;28;20057;-47
2023/02/24 09:12:47;;;;;;;10.35;2.63;;;;;;;7.52;94.23;101107.78;4980779;28;20399;-47
2023/02/24 09:15:40;;;;;;;17.05;3.42;;;;;;;7.53;94.13;101098.41;4988614;28;20082;-47
2023/02/24 09:18:37;;;;;;;12.82;2.40;;;;;;;7.54;94.02;101100.03;4987811;28;20129;-47
2023/02/24 09:22:04;;;;;;;8.85;3.28;;;;;;;7.55;94.05;101109.91;4987425;28;20069;-50
2023/02/24 09:24:49;;;;;;;9.95;1.80;;;;;;;7.54;93.98;101107.47;4987349;28;20404;-48
2023/02/24 09:27:41;;;;;;;10.38;1.95;;;;;;;7.54;93.98;101104.72;4985785;28;20439;-48
2023/02/24 09:30:37;;;;;;;17.27;2.88;;;;;;;7.54;94.00;101107.47;4987912;28;20060;-48
2023/02/24 09:33:37;;;;;;;13.85;3.10;;;;;;;7.54;93.97;101100.03;4987656;28;20059;-47
2023/02/24 09:36:28;;;;;;;19.08;2.47;;;;;;;7.55;94.00;101098.88;4986969;28;20497;-48
2023/02/24 09:39:15;;;;;;;11.57;3.58;;;;;;;7.57;94.02;101096.63;4978723;28;20881;-49
2023/02/24 09:42:27;;;;;;;18.25;3.47;;;;;;;7.58;93.89;101090.00;4990264;28;20614;-46
2023/02/24 09:45:21;;;;;;;9.60;2.10;;;;;;;7.58;93.98;101087.22;4987559;28;20065;-47
2023/02/24 09:48:20;;;;;;;11.48;3.30;;;;;;;7.60;94.27;101082.22;4977726;28;20093;-47
2023/02/24 09:51:09;;;;;;;9.38;2.83;;;;;;;7.64;94.02;101088.72;4988261;28;20062;-49
2023/02/24 09:54:00;;;;;;;14.32;3.60;;;;;;;7.66;93.99;101094.72;4987766;28;20050;-47
2023/02/24 09:57:06;;;;;;;11.20;3.22;;;;;;;7.68;94.13;101089.72;4988219;28;20161;-47
2023/02/24 10:03:41;;;;;;;18.52;2.53;;;;;;;7.68;93.99;101094.41;4999500;28;20542;-48
2023/02/24 10:06:34;;;;;;;11.65;3.05;;;;;;;7.68;94.06;101094.41;4987048;28;20050;-50
2023/02/24 10:09:38;;;;;;;19.17;4.03;;;;;;;7.68;94.12;101094.41;4978673;28;20057;-46
2023/02/24 10:12:38;;;;;;;11.32;2.78;;;;;;;7.70;94.10;101098.50;4977963;28;20038;-47
2023/02/24 10:15:57;;;;;;;13.38;3.00;;;;;;;7.73;94.19;101099.81;4986206;28;20093;-49
2023/02/24 10:18:59;;;;;;;11.02;2.70;;;;;;;7.75;94.17;101103.88;4986673;28;20065;-46
2023/02/24 10:21:59;;;;;;;16.48;3.85;;;;;;;7.80;94.16;101102.91;4977758;28;20046;-49
2023/02/24 10:25:00;;;;;;;12.13;3.08;;;;;;;7.86;94.24;101101.63;4990418;28;20058;-47
2023/02/24 10:28:13;;;;;;;19.20;7.10;;;;;;;7.94;94.21;101087.06;4990575;28;20108;-47
2023/02/24 10:31:23;;;;;;;19.10;3.42;;;;;;;8.04;94.04;101074.94;4990790;28;20057;-47
2023/02/24 10:34:24;;;;;;;16.92;4.78;;;;;;;8.13;93.93;101070.25;4989288;28;20491;-47
2023/02/24 10:37:18;;;;;;;11.25;3.50;;;;;;;8.21;93.58;101063.94;4988745;28;20054;-47
2023/02/24 10:40:25;;;;;;;16.48;3.20;;;;;;;8.29;93.81;101063.16;4984239;28;20039;-46
2023/02/24 10:43:18;;;;;;;12.40;2.78;;;;;;;8.39;93.72;101060.13;4979649;28;20050;-50
2023/02/24 10:46:05;;;;;;;11.90;2.92;;;;;;;8.43;93.63;101064.66;4990644;28;20057;-48
2023/02/24 10:48:59;;;;;;;8.65;2.42;;;;;;;8.45;93.62;101069.84;4990468;28;20054;-48
2023/02/24 10:51:50;;;;;;;10.07;3.78;;;;;;;8.44;93.73;101076.50;4990667;28;20054;-49
2023/02/24 10:55:03;;;;;;;7.07;2.17;;;;;;;8.43;93.83;101080.41;4989785;28;20086;-47
2023/02/24 10:57:54;;;;;;;4.70;1.48;;;;;;;8.48;93.91;101081.06;4990898;28;20111;-47
2023/02/24 11:00:56;;;;;;;7.63;2.35;;;;;;;8.63;93.80;101067.94;4988180;28;20058;-48
2023/02/24 11:04:01;;;;;;;9.15;3.03;;;;;;;8.80;93.55;101077.00;4990230;28;20046;-47
2023/02/24 11:06:51;;;;;;;13.73;4.35;;;;;;;8.94;93.33;101074.91;4989897;28;20066;-46
2023/02/24 11:09:51;;;;;;;6.53;2.10;;;;;;;9.22;93.18;101078.09;4987039;28;20046;-47
2023/02/24 11:19:05;;;;;;;6.32;1.67;;;;;;;10.09;92.10;101063.63;4980717;28;20121;-46
2023/02/24 11:21:54;;;;;;;6.90;3.33;;;;;;;10.28;91.87;101049.38;4989444;28;20417;-51
2023/02/24 11:24:44;;;;;;;11.40;2.33;;;;;;;10.35;91.74;101044.91;4989908;28;20079;-47
2023/02/24 11:27:31;;;;;;;8.32;2.00;;;;;;;10.36;91.73;101057.63;4988380;28;20054;-49
2023/02/24 11:30:39;;;;;;;6.18;2.53;;;;;;;10.41;91.96;101059.38;4979377;28;20061;-48
2023/02/24 11:33:40;;;;;;;8.98;2.20;;;;;;;10.57;92.20;101056.81;4985588;28;20057;-49
2023/02/24 11:36:40;;;;;;;10.52;2.10;;;;;;;10.89;91.60;101064.38;4990249;28;20072;-50
2023/02/24 11:39:54;;;;;;;8.43;1.77;;;;;;;11.03;90.65;101053.81;4983072;28;20053;-47
2023/02/24 11:43:19;;;;;;;7.57;1.52;;;;;;;11.12;90.61;101051.75;4987188;28;20069;-47
2023/02/24 11:46:14;;;;;;;6.93;1.65;;;;;;;11.13;90.23;101052.56;4981109;28;20055;-49
2023/02/24 11:49:08;;;;;;;5.15;1.20;;;;;;;11.12;89.89;101062.06;4985269;28;20447;-47
2023/02/24 11:51:58;;;;;;;6.35;1.20;;;;;;;11.24;89.66;101059.31;4984639;28;20060;-47
2023/02/24 11:54:52;;;;;;;3.92;1.55;;;;;;;11.35;89.33;101066.03;4985677;28;20057;-47
2023/02/24 11:57:49;;;;;;;9.20;2.25;;;;;;;11.28;88.93;101061.03;4972623;28;20420;-47
2023/02/24 12:00:50;;;;;;;6.97;3.97;;;;;;;11.07;88.70;101060.28;4987140;28;20456;-49
2023/02/24 12:03:50;;;;;;;9.40;2.70;;;;;;;10.88;88.57;101054.47;4985573;28;20412;-50
2023/02/24 12:07:03;;;;;;;14.60;2.50;;;;;;;10.75;88.67;101041.69;4986156;28;20054;-47
2023/02/24 12:10:01;;;;;;;9.23;3.13;;;;;;;10.63;88.63;101045.22;4980867;28;20130;-49
2023/02/24 12:13:08;;;;;;;6.72;2.45;;;;;;;10.60;88.36;101036.75;4984903;28;20086;-52
2023/02/24 12:16:03;;;;;;;8.00;2.83;;;;;;;10.60;88.34;101039.53;4984786;28;21311;-48
2023/02/24 12:19:45;;;;;;;9.05;1.88;;;;;;;10.56;88.04;101033.06;4981090;28;20145;-47
2023/02/24 12:22:45;;;;;;;13.63;3.70;;;;;;;10.52;87.62;101029.34;4963076;28;20166;-47
2023/02/24 12:25:52;;;;;;;15.65;2.90;;;;;;;10.53;87.23;101022.66;4985683;28;20061;-48
2023/02/24 12:28:45;;;;;;;9.68;1.90;;;;;;;10.45;86.85;101020.78;4978064;28;20054;-47
2023/02/24 12:31:41;;;;;;;10.02;3.78;;;;;;;10.49;87.05;101016.16;4971355;28;20055;-43
2023/02/24 12:34:52;;;;;;;6.90;2.13;;;;;;;10.52;86.39;101015.50;4983743;28;20515;-49
2023/02/24 12:37:50;;;;;;;11.82;1.90;;;;;;;10.53;85.99;101004.09;4985883;28;20077;-48
2023/02/24 12:40:54;;;;;;;3.35;1.25;;;;;;;10.52;86.04;101007.19;4985265;28;20059;-49
2023/02/24 12:44:16;;;;;;;15.02;2.15;;;;;;;10.56;85.56;100999.84;4984434;28;20567;-48
2023/02/24 12:47:19;;;;;;;4.47;1.48;;;;;;;10.55;85.14;101009.28;4982767;28;20069;-47
2023/02/24 12:50:32;;;;;;;7.80;1.52;;;;;;;10.52;85.00;101009.97;4986112;28;20065;-48
2023/02/24 12:53:29;;;;;;;7.25;2.08;;;;;;;10.45;84.88;100998.63;4981527;28;20054;-47
2023/02/24 12:56:26;;;;;;;7.00;1.08;;;;;;;10.43;84.71;100995.41;4980872;28;20158;-52
2023/02/24 12:59:19;;;;;;;3.85;1.13;;;;;;;10.35;84.31;100981.28;4980151;28;20065;-48
2023/02/24 13:02:24;;;;;;;4.75;1.73;;;;;;;10.31;84.36;100988.63;4981568;28;20062;-48
2023/02/24 13:05:14;;;;;;;6.68;1.10;;;;;;;10.32;84.43;100983.91;4987980;28;20054;-49
2023/02/24 13:08:39;;;;;;;8.05;2.35;;;;;;;10.36;84.19;100990.38;4984694;28;20053;-48
2023/02/24 13:11:46;;;;;;;6.22;1.10;;;;;;;10.37;83.67;100986.47;4977418;28;20320;-52
2023/02/24 13:14:36;;;;;;;8.25;1.63;;;;;;;10.38;83.54;100994.44;4984980;28;20073;-47
2023/02/24 13:17:25;;;;;;;2.30;1.13;;;;;;;10.37;83.17;100986.47;4981979;28;20058;-47
2023/02/24 13:20:27;;;;;;;10.95;2.72;;;;;;;10.36;83.06;100988.44;4980634;28;20061;-47
2023/02/24 13:23:20;;;;;;;5.38;2.10;;;;;;;10.34;82.94;100987.97;4984129;28;20105;-49
2023/02/24 13:26:07;;;;;;;;;;;;;;;10.30;82.67;100983.44;4980196;28;20050;-49
2023/02/24 13:29:08;;;;;;;8.90;2.00;;;;;;;10.28;82.70;100972.72;4981424;28;19929;-48
2023/02/24 13:31:55;;;;;;;5.05;1.67;;;;;;;10.28;82.66;100974.66;4981981;28;20055;-47
2023/02/24 13:34:44;;;;;;;8.15;2.88;;;;;;;10.30;82.18;100970.41;4984554;28;20057;-46
2023/02/24 13:37:30;;;;;;;6.72;1.23;;;;;;;10.32;82.26;100961.78;4985676;28;20058;-48
2023/02/24 13:40:17;;;;;;;5.07;1.30;;;;;;;10.34;81.76;100971.38;4983233;28;20047;-47
2023/02/24 13:43:22;;;;;;;6.75;2.08;;;;;;;10.40;81.80;100958.91;4977785;28;20502;-48
2023/02/24 13:46:17;;;;;;;4.55;1.40;;;;;;;10.44;81.48;100958.25;4972101;28;20532;-52
2023/02/24 13:49:29;;;;;;;4.88;1.55;;;;;;;10.44;81.36;100972.91;4965965;28;20523;-49
2023/02/24 13:52:31;;;;;;;7.55;1.25;;;;;;;10.46;81.27;100961.50;4982665;28;20054;-47